Portada
METAR-TAF:

METAR-TAF

Aeroports :

Tongatapu, Tonga

latitud: 21-14S, longitud: 175-09W, altitud: 38 m

Observació

L'informe es va fer fa 1 hora i 4 minuts, a les 13:00 UTC
Vent 5 kt del Est
Temperatura 24°C
Humitat 89%
Pressió 1018 hPa
Visibilitat 10 km o més
Núvols disperses a una alçada de 1600 ft, Cumulus congestus.
Cel ennuvolat a una alçada de 3500 ft

METAR: NFTF 031300Z 10005KT 9999 SCT016TCU BKN035 24/22 Q1018

Hora: 03:04 (14:04 UTC)

Pronòstic

L'informe es va fer fa 3 hores i 4 minuts, a les 11:00 UTC
Pronòstic vàlid del 03 a les 12 UTC al 04 a les 12 UTC
Vent 6 kt del Est
Visibilitat 10 km o més
Escasses núvols a una alçada de 1600 ft
Cel ennuvolat a una alçada de 4000 ft

TAF: NFTF 031100Z 0312/0412 10006KT 9999 FEW016 BKN040

Observacions i pronòstics meteorològics de més de 4000 aeroports (METAR i TAF).

Les estacions disponibles són els punts grocs i vermells al mapa.

Posi el ratolí al punt desitjat per veure el nom de l'estació.

Feu clic per veure les observacions i els pronòstics meteorològics.

Per canviar el mapa: feu clic els botons verds amb una creu de color negre per apropar; al botó verd amb un guió per allunyar la imatge; o en les fletxes verdes per a mapes adjacents.


METAR-TAF: